sensor_id;sensor_type;location;lat;lon;timestamp;P1;durP1;ratioP1;P2;durP2;ratioP2
11835;SDS011;5977;51.972;7.640;2023-04-15T00:01:08;141.70;;;46.00;;
11835;SDS011;5977;51.972;7.640;2023-04-15T00:03:37;141.30;;;45.73;;
11835;SDS011;5977;51.972;7.640;2023-04-15T00:06:05;141.13;;;45.73;;
11835;SDS011;5977;51.972;7.640;2023-04-15T00:08:33;141.87;;;46.00;;
11835;SDS011;5977;51.972;7.640;2023-04-15T00:11:02;141.90;;;46.07;;
11835;SDS011;5977;51.972;7.640;2023-04-15T00:13:31;141.50;;;45.93;;
11835;SDS011;5977;51.972;7.640;2023-04-15T00:15:59;141.73;;;45.93;;
11835;SDS011;5977;51.972;7.640;2023-04-15T00:18:27;141.43;;;45.87;;
11835;SDS011;5977;51.972;7.640;2023-04-15T00:20:56;142.07;;;46.10;;
11835;SDS011;5977;51.972;7.640;2023-04-15T00:23:24;141.10;;;45.70;;
11835;SDS011;5977;51.972;7.640;2023-04-15T00:25:52;140.80;;;45.60;;
11835;SDS011;5977;51.972;7.640;2023-04-15T00:28:22;140.87;;;45.77;;
11835;SDS011;5977;51.972;7.640;2023-04-15T00:30:50;140.67;;;45.60;;
11835;SDS011;5977;51.972;7.640;2023-04-15T00:33:18;140.50;;;45.53;;
11835;SDS011;5977;51.972;7.640;2023-04-15T00:35:45;142.07;;;46.17;;
11835;SDS011;5977;51.972;7.640;2023-04-15T00:38:13;141.17;;;45.83;;
11835;SDS011;5977;51.972;7.640;2023-04-15T00:40:41;140.83;;;45.77;;
11835;SDS011;5977;51.972;7.640;2023-04-15T00:43:09;140.37;;;45.57;;
11835;SDS011;5977;51.972;7.640;2023-04-15T00:45:38;140.97;;;45.70;;
11835;SDS011;5977;51.972;7.640;2023-04-15T00:48:08;139.83;;;45.43;;
11835;SDS011;5977;51.972;7.640;2023-04-15T00:50:37;140.30;;;45.60;;
11835;SDS011;5977;51.972;7.640;2023-04-15T00:53:04;139.93;;;45.47;;
11835;SDS011;5977;51.972;7.640;2023-04-15T00:55:32;140.00;;;45.47;;
11835;SDS011;5977;51.972;7.640;2023-04-15T00:58:01;140.17;;;45.40;;
11835;SDS011;5977;51.972;7.640;2023-04-15T01:00:29;140.63;;;45.77;;
11835;SDS011;5977;51.972;7.640;2023-04-15T01:02:59;140.20;;;45.67;;
11835;SDS011;5977;51.972;7.640;2023-04-15T01:05:27;139.90;;;45.57;;
11835;SDS011;5977;51.972;7.640;2023-04-15T01:07:56;140.10;;;45.50;;
11835;SDS011;5977;51.972;7.640;2023-04-15T01:10:24;140.00;;;45.47;;
11835;SDS011;5977;51.972;7.640;2023-04-15T01:12:52;140.40;;;45.57;;
11835;SDS011;5977;51.972;7.640;2023-04-15T01:15:20;140.43;;;45.60;;
11835;SDS011;5977;51.972;7.640;2023-04-15T01:17:48;140.87;;;45.90;;
11835;SDS011;5977;51.972;7.640;2023-04-15T01:20:18;140.07;;;45.57;;
11835;SDS011;5977;51.972;7.640;2023-04-15T01:22:47;139.87;;;45.53;;
11835;SDS011;5977;51.972;7.640;2023-04-15T01:25:17;140.37;;;45.70;;
11835;SDS011;5977;51.972;7.640;2023-04-15T01:27:48;139.87;;;45.37;;
11835;SDS011;5977;51.972;7.640;2023-04-15T01:30:16;139.50;;;45.37;;
11835;SDS011;5977;51.972;7.640;2023-04-15T01:32:45;140.40;;;45.67;;
11835;SDS011;5977;51.972;7.640;2023-04-15T01:35:13;139.87;;;45.60;;
11835;SDS011;5977;51.972;7.640;2023-04-15T01:37:41;139.87;;;45.40;;
11835;SDS011;5977;51.972;7.640;2023-04-15T01:40:09;139.47;;;45.33;;
11835;SDS011;5977;51.972;7.640;2023-04-15T01:42:37;139.57;;;45.43;;
11835;SDS011;5977;51.972;7.640;2023-04-15T01:45:07;139.47;;;45.37;;
11835;SDS011;5977;51.972;7.640;2023-04-15T01:47:36;139.87;;;45.53;;
11835;SDS011;5977;51.972;7.640;2023-04-15T01:50:05;139.87;;;45.60;;
11835;SDS011;5977;51.972;7.640;2023-04-15T01:52:33;139.53;;;45.43;;
11835;SDS011;5977;51.972;7.640;2023-04-15T01:55:01;139.47;;;45.50;;
11835;SDS011;5977;51.972;7.640;2023-04-15T01:57:29;139.40;;;45.40;;
11835;SDS011;5977;51.972;7.640;2023-04-15T01:59:57;139.33;;;45.37;;
11835;SDS011;5977;51.972;7.640;2023-04-15T02:02:26;139.13;;;45.37;;
11835;SDS011;5977;51.972;7.640;2023-04-15T02:04:55;139.83;;;45.63;;
11835;SDS011;5977;51.972;7.640;2023-04-15T02:07:23;138.80;;;45.10;;
11835;SDS011;5977;51.972;7.640;2023-04-15T02:09:51;139.90;;;45.50;;
11835;SDS011;5977;51.972;7.640;2023-04-15T02:12:19;139.33;;;45.40;;
11835;SDS011;5977;51.972;7.640;2023-04-15T02:14:47;139.60;;;45.43;;
11835;SDS011;5977;51.972;7.640;2023-04-15T02:17:15;138.93;;;45.40;;
11835;SDS011;5977;51.972;7.640;2023-04-15T02:19:44;138.47;;;45.07;;
11835;SDS011;5977;51.972;7.640;2023-04-15T02:22:13;139.30;;;45.40;;
11835;SDS011;5977;51.972;7.640;2023-04-15T02:24:44;139.00;;;45.20;;
11835;SDS011;5977;51.972;7.640;2023-04-15T02:27:14;138.77;;;45.17;;
11835;SDS011;5977;51.972;7.640;2023-04-15T02:29:43;138.90;;;45.43;;
11835;SDS011;5977;51.972;7.640;2023-04-15T02:32:11;138.60;;;45.27;;
11835;SDS011;5977;51.972;7.640;2023-04-15T02:34:40;139.10;;;45.40;;
11835;SDS011;5977;51.972;7.640;2023-04-15T02:37:10;139.00;;;45.30;;
11835;SDS011;5977;51.972;7.640;2023-04-15T02:39:39;139.20;;;45.40;;
11835;SDS011;5977;51.972;7.640;2023-04-15T02:42:08;138.77;;;45.20;;
11835;SDS011;5977;51.972;7.640;2023-04-15T02:44:36;138.07;;;44.93;;
11835;SDS011;5977;51.972;7.640;2023-04-15T02:47:04;138.80;;;45.30;;
11835;SDS011;5977;51.972;7.640;2023-04-15T02:49:32;139.20;;;45.50;;
11835;SDS011;5977;51.972;7.640;2023-04-15T02:52:00;139.00;;;45.37;;
11835;SDS011;5977;51.972;7.640;2023-04-15T02:54:29;138.73;;;45.33;;
11835;SDS011;5977;51.972;7.640;2023-04-15T02:56:59;139.03;;;45.50;;
11835;SDS011;5977;51.972;7.640;2023-04-15T02:59:27;138.37;;;45.17;;
11835;SDS011;5977;51.972;7.640;2023-04-15T03:01:55;138.27;;;45.10;;
11835;SDS011;5977;51.972;7.640;2023-04-15T03:04:26;138.47;;;45.30;;
11835;SDS011;5977;51.972;7.640;2023-04-15T03:06:55;137.80;;;45.00;;
11835;SDS011;5977;51.972;7.640;2023-04-15T03:09:24;138.23;;;45.10;;
11835;SDS011;5977;51.972;7.640;2023-04-15T03:11:54;138.73;;;45.40;;
11835;SDS011;5977;51.972;7.640;2023-04-15T03:14:22;137.53;;;44.80;;
11835;SDS011;5977;51.972;7.640;2023-04-15T03:16:50;138.37;;;45.17;;
11835;SDS011;5977;51.972;7.640;2023-04-15T03:19:18;138.53;;;45.30;;
11835;SDS011;5977;51.972;7.640;2023-04-15T03:21:46;138.53;;;45.30;;
11835;SDS011;5977;51.972;7.640;2023-04-15T03:24:15;137.80;;;44.90;;
11835;SDS011;5977;51.972;7.640;2023-04-15T03:26:43;138.40;;;45.23;;
11835;SDS011;5977;51.972;7.640;2023-04-15T03:29:16;138.17;;;45.20;;
11835;SDS011;5977;51.972;7.640;2023-04-15T03:31:44;137.80;;;45.00;;
11835;SDS011;5977;51.972;7.640;2023-04-15T03:34:12;138.10;;;45.03;;
11835;SDS011;5977;51.972;7.640;2023-04-15T03:36:40;138.23;;;45.13;;
11835;SDS011;5977;51.972;7.640;2023-04-15T03:39:07;137.87;;;45.03;;
11835;SDS011;5977;51.972;7.640;2023-04-15T03:41:35;137.97;;;45.00;;
11835;SDS011;5977;51.972;7.640;2023-04-15T03:44:03;137.87;;;45.07;;
11835;SDS011;5977;51.972;7.640;2023-04-15T03:46:33;137.60;;;45.03;;
11835;SDS011;5977;51.972;7.640;2023-04-15T03:49:01;137.10;;;44.83;;
11835;SDS011;5977;51.972;7.640;2023-04-15T03:51:29;137.37;;;45.00;;
11835;SDS011;5977;51.972;7.640;2023-04-15T03:53:57;138.03;;;45.10;;
11835;SDS011;5977;51.972;7.640;2023-04-15T03:56:25;137.40;;;44.90;;
11835;SDS011;5977;51.972;7.640;2023-04-15T03:58:53;137.37;;;44.97;;
11835;SDS011;5977;51.972;7.640;2023-04-15T04:01:21;137.60;;;45.03;;
11835;SDS011;5977;51.972;7.640;2023-04-15T04:03:50;137.83;;;45.10;;
11835;SDS011;5977;51.972;7.640;2023-04-15T04:06:18;137.77;;;45.00;;
11835;SDS011;5977;51.972;7.640;2023-04-15T04:08:46;137.20;;;44.80;;
11835;SDS011;5977;51.972;7.640;2023-04-15T04:11:14;137.77;;;45.10;;
11835;SDS011;5977;51.972;7.640;2023-04-15T04:13:42;137.27;;;44.90;;
11835;SDS011;5977;51.972;7.640;2023-04-15T04:16:10;137.67;;;45.13;;
11835;SDS011;5977;51.972;7.640;2023-04-15T04:18:38;137.57;;;45.10;;
11835;SDS011;5977;51.972;7.640;2023-04-15T04:21:07;138.00;;;45.27;;
11835;SDS011;5977;51.972;7.640;2023-04-15T04:23:35;137.60;;;45.17;;
11835;SDS011;5977;51.972;7.640;2023-04-15T04:26:03;137.43;;;45.00;;
11835;SDS011;5977;51.972;7.640;2023-04-15T04:28:31;137.60;;;45.10;;
11835;SDS011;5977;51.972;7.640;2023-04-15T04:31:00;137.23;;;45.03;;
11835;SDS011;5977;51.972;7.640;2023-04-15T04:33:28;137.10;;;44.97;;
11835;SDS011;5977;51.972;7.640;2023-04-15T04:35:56;137.50;;;45.10;;
11835;SDS011;5977;51.972;7.640;2023-04-15T04:38:25;137.47;;;45.00;;
11835;SDS011;5977;51.972;7.640;2023-04-15T04:40:52;137.23;;;45.00;;
11835;SDS011;5977;51.972;7.640;2023-04-15T04:43:21;137.53;;;45.03;;
11835;SDS011;5977;51.972;7.640;2023-04-15T04:45:49;137.60;;;45.13;;
11835;SDS011;5977;51.972;7.640;2023-04-15T04:48:17;136.73;;;44.70;;
11835;SDS011;5977;51.972;7.640;2023-04-15T04:50:45;136.97;;;44.83;;
11835;SDS011;5977;51.972;7.640;2023-04-15T04:53:13;137.63;;;45.10;;
11835;SDS011;5977;51.972;7.640;2023-04-15T04:55:42;137.33;;;44.97;;
11835;SDS011;5977;51.972;7.640;2023-04-15T04:58:10;136.20;;;44.60;;
11835;SDS011;5977;51.972;7.640;2023-04-15T05:00:39;137.57;;;45.13;;
11835;SDS011;5977;51.972;7.640;2023-04-15T05:03:07;137.23;;;44.90;;
11835;SDS011;5977;51.972;7.640;2023-04-15T05:05:35;137.27;;;45.00;;
11835;SDS011;5977;51.972;7.640;2023-04-15T05:08:04;137.47;;;45.10;;
11835;SDS011;5977;51.972;7.640;2023-04-15T05:10:32;137.80;;;45.20;;
11835;SDS011;5977;51.972;7.640;2023-04-15T05:13:01;137.87;;;45.20;;
11835;SDS011;5977;51.972;7.640;2023-04-15T05:15:29;137.37;;;44.93;;
11835;SDS011;5977;51.972;7.640;2023-04-15T05:17:57;137.57;;;45.07;;
11835;SDS011;5977;51.972;7.640;2023-04-15T05:20:25;137.73;;;45.23;;
11835;SDS011;5977;51.972;7.640;2023-04-15T05:22:53;137.37;;;45.03;;
11835;SDS011;5977;51.972;7.640;2023-04-15T05:25:21;137.47;;;45.00;;
11835;SDS011;5977;51.972;7.640;2023-04-15T05:27:49;138.10;;;45.30;;
11835;SDS011;5977;51.972;7.640;2023-04-15T05:30:18;138.60;;;45.63;;
11835;SDS011;5977;51.972;7.640;2023-04-15T05:32:47;137.90;;;45.23;;
11835;SDS011;5977;51.972;7.640;2023-04-15T05:35:15;137.20;;;44.93;;
11835;SDS011;5977;51.972;7.640;2023-04-15T05:37:43;138.33;;;45.40;;
11835;SDS011;5977;51.972;7.640;2023-04-15T05:40:11;137.63;;;45.00;;
11835;SDS011;5977;51.972;7.640;2023-04-15T05:42:39;138.40;;;45.40;;
11835;SDS011;5977;51.972;7.640;2023-04-15T05:45:07;138.20;;;45.40;;
11835;SDS011;5977;51.972;7.640;2023-04-15T05:47:37;137.80;;;45.30;;
11835;SDS011;5977;51.972;7.640;2023-04-15T05:50:05;138.30;;;45.37;;
11835;SDS011;5977;51.972;7.640;2023-04-15T05:52:34;138.60;;;45.43;;
11835;SDS011;5977;51.972;7.640;2023-04-15T05:55:02;138.10;;;45.30;;
11835;SDS011;5977;51.972;7.640;2023-04-15T05:57:30;138.37;;;45.40;;
11835;SDS011;5977;51.972;7.640;2023-04-15T05:59:58;138.10;;;45.33;;
11835;SDS011;5977;51.972;7.640;2023-04-15T06:02:25;137.87;;;45.30;;
11835;SDS011;5977;51.972;7.640;2023-04-15T06:04:55;137.40;;;45.13;;
11835;SDS011;5977;51.972;7.640;2023-04-15T06:07:23;137.33;;;45.10;;
11835;SDS011;5977;51.972;7.640;2023-04-15T06:09:51;137.90;;;45.37;;
11835;SDS011;5977;51.972;7.640;2023-04-15T06:12:19;137.67;;;45.10;;
11835;SDS011;5977;51.972;7.640;2023-04-15T06:14:47;137.50;;;45.00;;
11835;SDS011;5977;51.972;7.640;2023-04-15T06:17:15;137.13;;;44.90;;
11835;SDS011;5977;51.972;7.640;2023-04-15T06:19:44;137.30;;;45.10;;
11835;SDS011;5977;51.972;7.640;2023-04-15T06:22:13;138.00;;;45.30;;
11835;SDS011;5977;51.972;7.640;2023-04-15T06:24:41;137.13;;;45.00;;
11835;SDS011;5977;51.972;7.640;2023-04-15T06:27:08;137.60;;;45.27;;
11835;SDS011;5977;51.972;7.640;2023-04-15T06:29:36;137.20;;;44.97;;
11835;SDS011;5977;51.972;7.640;2023-04-15T06:32:04;137.53;;;45.20;;
11835;SDS011;5977;51.972;7.640;2023-04-15T06:34:33;137.80;;;45.20;;
11835;SDS011;5977;51.972;7.640;2023-04-15T06:37:01;137.50;;;45.10;;
11835;SDS011;5977;51.972;7.640;2023-04-15T06:39:32;137.77;;;45.33;;
11835;SDS011;5977;51.972;7.640;2023-04-15T06:42:01;137.07;;;45.00;;
11835;SDS011;5977;51.972;7.640;2023-04-15T06:44:29;137.40;;;45.13;;
11835;SDS011;5977;51.972;7.640;2023-04-15T06:46:59;137.63;;;45.20;;
11835;SDS011;5977;51.972;7.640;2023-04-15T06:49:27;136.93;;;44.90;;
11835;SDS011;5977;51.972;7.640;2023-04-15T06:51:55;137.57;;;45.10;;
11835;SDS011;5977;51.972;7.640;2023-04-15T06:54:23;137.80;;;45.23;;
11835;SDS011;5977;51.972;7.640;2023-04-15T06:56:52;137.63;;;45.30;;
11835;SDS011;5977;51.972;7.640;2023-04-15T06:59:20;138.77;;;45.67;;
11835;SDS011;5977;51.972;7.640;2023-04-15T07:01:47;138.00;;;45.27;;
11835;SDS011;5977;51.972;7.640;2023-04-15T07:04:15;137.70;;;45.33;;
11835;SDS011;5977;51.972;7.640;2023-04-15T07:06:43;138.33;;;45.47;;
11835;SDS011;5977;51.972;7.640;2023-04-15T07:09:11;137.03;;;44.97;;
11835;SDS011;5977;51.972;7.640;2023-04-15T07:11:39;137.83;;;45.30;;
11835;SDS011;5977;51.972;7.640;2023-04-15T07:14:08;138.00;;;45.17;;
11835;SDS011;5977;51.972;7.640;2023-04-15T07:16:36;138.43;;;45.47;;
11835;SDS011;5977;51.972;7.640;2023-04-15T07:19:04;137.90;;;45.20;;
11835;SDS011;5977;51.972;7.640;2023-04-15T07:21:32;138.23;;;45.40;;
11835;SDS011;5977;51.972;7.640;2023-04-15T07:24:00;139.13;;;45.67;;
11835;SDS011;5977;51.972;7.640;2023-04-15T07:26:28;138.43;;;45.43;;
11835;SDS011;5977;51.972;7.640;2023-04-15T07:28:56;138.50;;;45.50;;
11835;SDS011;5977;51.972;7.640;2023-04-15T07:31:25;139.47;;;45.80;;
11835;SDS011;5977;51.972;7.640;2023-04-15T07:33:53;140.93;;;46.20;;
11835;SDS011;5977;51.972;7.640;2023-04-15T07:36:21;142.30;;;46.57;;
11835;SDS011;5977;51.972;7.640;2023-04-15T07:38:49;144.43;;;47.10;;
11835;SDS011;5977;51.972;7.640;2023-04-15T07:41:17;146.00;;;47.87;;
11835;SDS011;5977;51.972;7.640;2023-04-15T07:43:46;146.97;;;47.93;;
11835;SDS011;5977;51.972;7.640;2023-04-15T07:46:14;146.57;;;47.83;;
11835;SDS011;5977;51.972;7.640;2023-04-15T07:48:43;147.77;;;48.37;;
11835;SDS011;5977;51.972;7.640;2023-04-15T07:51:11;148.13;;;48.40;;
11835;SDS011;5977;51.972;7.640;2023-04-15T07:53:39;148.37;;;48.50;;
11835;SDS011;5977;51.972;7.640;2023-04-15T07:56:07;147.90;;;48.33;;
11835;SDS011;5977;51.972;7.640;2023-04-15T07:58:35;148.53;;;48.70;;
11835;SDS011;5977;51.972;7.640;2023-04-15T08:01:03;148.43;;;48.53;;
11835;SDS011;5977;51.972;7.640;2023-04-15T08:03:31;148.90;;;48.70;;
11835;SDS011;5977;51.972;7.640;2023-04-15T08:06:01;149.40;;;48.90;;
11835;SDS011;5977;51.972;7.640;2023-04-15T08:08:29;149.13;;;48.90;;
11835;SDS011;5977;51.972;7.640;2023-04-15T08:10:57;149.30;;;48.83;;
11835;SDS011;5977;51.972;7.640;2023-04-15T08:13:25;148.53;;;48.47;;
11835;SDS011;5977;51.972;7.640;2023-04-15T08:18:45;148.53;;;48.43;;
11835;SDS011;5977;51.972;7.640;2023-04-15T08:21:16;148.67;;;48.50;;
11835;SDS011;5977;51.972;7.640;2023-04-15T08:23:45;149.00;;;48.70;;
11835;SDS011;5977;51.972;7.640;2023-04-15T08:26:14;148.50;;;48.53;;
11835;SDS011;5977;51.972;7.640;2023-04-15T08:28:43;148.70;;;48.50;;
11835;SDS011;5977;51.972;7.640;2023-04-15T08:31:11;148.33;;;48.50;;
11835;SDS011;5977;51.972;7.640;2023-04-15T08:33:40;148.53;;;48.43;;
11835;SDS011;5977;51.972;7.640;2023-04-15T08:36:08;148.20;;;48.47;;
11835;SDS011;5977;51.972;7.640;2023-04-15T08:38:38;148.70;;;48.67;;
11835;SDS011;5977;51.972;7.640;2023-04-15T08:41:09;148.87;;;48.47;;
11835;SDS011;5977;51.972;7.640;2023-04-15T08:43:45;148.53;;;48.50;;
11835;SDS011;5977;51.972;7.640;2023-04-15T08:46:18;148.60;;;48.50;;
11835;SDS011;5977;51.972;7.640;2023-04-15T08:48:47;147.97;;;48.20;;
11835;SDS011;5977;51.972;7.640;2023-04-15T08:51:16;148.43;;;48.37;;
11835;SDS011;5977;51.972;7.640;2023-04-15T08:53:46;148.73;;;48.53;;
11835;SDS011;5977;51.972;7.640;2023-04-15T08:56:14;148.63;;;48.50;;
11835;SDS011;5977;51.972;7.640;2023-04-15T08:58:43;148.80;;;48.70;;
11835;SDS011;5977;51.972;7.640;2023-04-15T09:01:12;148.33;;;48.27;;
11835;SDS011;5977;51.972;7.640;2023-04-15T09:03:40;149.07;;;48.70;;
11835;SDS011;5977;51.972;7.640;2023-04-15T09:06:09;149.73;;;48.90;;
11835;SDS011;5977;51.972;7.640;2023-04-15T09:08:37;149.10;;;48.70;;
11835;SDS011;5977;51.972;7.640;2023-04-15T09:11:06;148.77;;;48.47;;
11835;SDS011;5977;51.972;7.640;2023-04-15T09:13:34;148.80;;;48.60;;
11835;SDS011;5977;51.972;7.640;2023-04-15T09:16:02;148.50;;;48.47;;
11835;SDS011;5977;51.972;7.640;2023-04-15T09:18:34;149.10;;;48.80;;
11835;SDS011;5977;51.972;7.640;2023-04-15T09:21:03;148.60;;;48.50;;
11835;SDS011;5977;51.972;7.640;2023-04-15T09:23:34;148.30;;;48.33;;
11835;SDS011;5977;51.972;7.640;2023-04-15T09:26:02;148.93;;;48.63;;
11835;SDS011;5977;51.972;7.640;2023-04-15T09:28:32;148.97;;;48.67;;
11835;SDS011;5977;51.972;7.640;2023-04-15T09:31:01;149.07;;;48.77;;
11835;SDS011;5977;51.972;7.640;2023-04-15T09:33:29;148.57;;;48.43;;
11835;SDS011;5977;51.972;7.640;2023-04-15T09:35:58;149.43;;;48.90;;
11835;SDS011;5977;51.972;7.640;2023-04-15T09:38:27;149.17;;;48.63;;
11835;SDS011;5977;51.972;7.640;2023-04-15T09:40:55;148.53;;;48.43;;
11835;SDS011;5977;51.972;7.640;2023-04-15T09:43:37;148.67;;;48.53;;
11835;SDS011;5977;51.972;7.640;2023-04-15T09:46:05;148.97;;;48.67;;
11835;SDS011;5977;51.972;7.640;2023-04-15T09:48:33;148.93;;;48.70;;
11835;SDS011;5977;51.972;7.640;2023-04-15T09:51:01;148.87;;;48.67;;
11835;SDS011;5977;51.972;7.640;2023-04-15T09:53:29;149.33;;;48.83;;
11835;SDS011;5977;51.972;7.640;2023-04-15T09:56:00;148.93;;;48.67;;
11835;SDS011;5977;51.972;7.640;2023-04-15T09:58:29;149.77;;;49.07;;
11835;SDS011;5977;51.972;7.640;2023-04-15T10:01:01;148.57;;;48.37;;
11835;SDS011;5977;51.972;7.640;2023-04-15T10:03:30;149.57;;;49.00;;
11835;SDS011;5977;51.972;7.640;2023-04-15T10:06:01;149.33;;;48.77;;
11835;SDS011;5977;51.972;7.640;2023-04-15T10:08:31;148.90;;;48.50;;
11835;SDS011;5977;51.972;7.640;2023-04-15T10:11:00;150.00;;;49.03;;
11835;SDS011;5977;51.972;7.640;2023-04-15T10:13:29;149.73;;;49.07;;
11835;SDS011;5977;51.972;7.640;2023-04-15T10:16:04;150.23;;;49.23;;
11835;SDS011;5977;51.972;7.640;2023-04-15T10:18:33;149.07;;;48.70;;
11835;SDS011;5977;51.972;7.640;2023-04-15T10:21:02;149.63;;;49.00;;
11835;SDS011;5977;51.972;7.640;2023-04-15T10:23:31;149.97;;;49.00;;
11835;SDS011;5977;51.972;7.640;2023-04-15T10:26:00;149.40;;;48.80;;
11835;SDS011;5977;51.972;7.640;2023-04-15T10:28:30;149.50;;;48.77;;
11835;SDS011;5977;51.972;7.640;2023-04-15T10:30:58;150.20;;;49.23;;
11835;SDS011;5977;51.972;7.640;2023-04-15T10:33:29;149.93;;;48.87;;
11835;SDS011;5977;51.972;7.640;2023-04-15T10:35:57;149.87;;;49.07;;
11835;SDS011;5977;51.972;7.640;2023-04-15T10:38:33;149.70;;;48.90;;
11835;SDS011;5977;51.972;7.640;2023-04-15T10:41:12;149.90;;;49.00;;
11835;SDS011;5977;51.972;7.640;2023-04-15T10:43:48;149.23;;;48.47;;
11835;SDS011;5977;51.972;7.640;2023-04-15T10:46:18;149.47;;;48.83;;
11835;SDS011;5977;51.972;7.640;2023-04-15T10:48:52;149.23;;;48.60;;
11835;SDS011;5977;51.972;7.640;2023-04-15T10:51:27;150.00;;;49.03;;
11835;SDS011;5977;51.972;7.640;2023-04-15T10:53:56;149.80;;;49.07;;
11835;SDS011;5977;51.972;7.640;2023-04-15T10:56:27;149.83;;;48.93;;
11835;SDS011;5977;51.972;7.640;2023-04-15T10:58:57;149.53;;;48.97;;
11835;SDS011;5977;51.972;7.640;2023-04-15T11:07:37;149.93;;;48.83;;
11835;SDS011;5977;51.972;7.640;2023-04-15T11:13:21;150.53;;;49.30;;
11835;SDS011;5977;51.972;7.640;2023-04-15T11:15:54;149.53;;;48.87;;
11835;SDS011;5977;51.972;7.640;2023-04-15T11:18:27;150.03;;;48.80;;
11835;SDS011;5977;51.972;7.640;2023-04-15T11:21:01;150.27;;;49.03;;
11835;SDS011;5977;51.972;7.640;2023-04-15T11:23:35;150.33;;;49.10;;
11835;SDS011;5977;51.972;7.640;2023-04-15T11:26:05;150.57;;;49.27;;
11835;SDS011;5977;51.972;7.640;2023-04-15T11:28:37;150.80;;;49.57;;
11835;SDS011;5977;51.972;7.640;2023-04-15T11:31:06;150.43;;;49.13;;
11835;SDS011;5977;51.972;7.640;2023-04-15T11:33:37;150.20;;;49.17;;
11835;SDS011;5977;51.972;7.640;2023-04-15T11:36:13;150.83;;;49.37;;
11835;SDS011;5977;51.972;7.640;2023-04-15T11:38:41;150.87;;;49.50;;
11835;SDS011;5977;51.972;7.640;2023-04-15T11:41:10;151.07;;;49.50;;
11835;SDS011;5977;51.972;7.640;2023-04-15T11:43:38;151.20;;;49.37;;
11835;SDS011;5977;51.972;7.640;2023-04-15T11:46:06;150.67;;;49.17;;
11835;SDS011;5977;51.972;7.640;2023-04-15T11:48:35;150.53;;;49.23;;
11835;SDS011;5977;51.972;7.640;2023-04-15T11:51:03;151.03;;;49.47;;
11835;SDS011;5977;51.972;7.640;2023-04-15T11:53:37;149.97;;;48.77;;
11835;SDS011;5977;51.972;7.640;2023-04-15T11:56:06;151.13;;;49.60;;
11835;SDS011;5977;51.972;7.640;2023-04-15T11:58:36;150.33;;;48.97;;
11835;SDS011;5977;51.972;7.640;2023-04-15T12:01:05;150.37;;;49.17;;
11835;SDS011;5977;51.972;7.640;2023-04-15T12:03:37;151.27;;;49.50;;
11835;SDS011;5977;51.972;7.640;2023-04-15T12:06:10;151.50;;;49.73;;
11835;SDS011;5977;51.972;7.640;2023-04-15T12:08:50;151.63;;;49.60;;
11835;SDS011;5977;51.972;7.640;2023-04-15T12:11:32;150.87;;;49.33;;
11835;SDS011;5977;51.972;7.640;2023-04-15T12:14:02;151.03;;;49.30;;
11835;SDS011;5977;51.972;7.640;2023-04-15T12:16:33;150.53;;;49.07;;
11835;SDS011;5977;51.972;7.640;2023-04-15T12:19:15;150.90;;;49.50;;
11835;SDS011;5977;51.972;7.640;2023-04-15T12:21:45;150.47;;;49.23;;
11835;SDS011;5977;51.972;7.640;2023-04-15T12:24:18;151.47;;;49.57;;
11835;SDS011;5977;51.972;7.640;2023-04-15T12:26:47;150.90;;;49.40;;
11835;SDS011;5977;51.972;7.640;2023-04-15T12:29:16;151.67;;;49.70;;
11835;SDS011;5977;51.972;7.640;2023-04-15T12:31:51;150.80;;;49.37;;
11835;SDS011;5977;51.972;7.640;2023-04-15T12:34:24;150.63;;;49.07;;
11835;SDS011;5977;51.972;7.640;2023-04-15T12:36:54;151.07;;;49.43;;
11835;SDS011;5977;51.972;7.640;2023-04-15T12:39:26;150.80;;;49.20;;
11835;SDS011;5977;51.972;7.640;2023-04-15T12:41:56;151.63;;;49.77;;
11835;SDS011;5977;51.972;7.640;2023-04-15T12:44:25;151.20;;;49.43;;
11835;SDS011;5977;51.972;7.640;2023-04-15T12:46:53;152.23;;;49.80;;
11835;SDS011;5977;51.972;7.640;2023-04-15T12:49:22;151.40;;;49.43;;
11835;SDS011;5977;51.972;7.640;2023-04-15T12:51:51;151.37;;;49.63;;
11835;SDS011;5977;51.972;7.640;2023-04-15T12:54:20;152.13;;;49.93;;
11835;SDS011;5977;51.972;7.640;2023-04-15T12:56:49;150.97;;;49.60;;
11835;SDS011;5977;51.972;7.640;2023-04-15T12:59:17;152.00;;;49.67;;
11835;SDS011;5977;51.972;7.640;2023-04-15T13:01:45;151.93;;;49.77;;
11835;SDS011;5977;51.972;7.640;2023-04-15T13:04:14;150.10;;;48.73;;
11835;SDS011;5977;51.972;7.640;2023-04-15T13:06:42;148.50;;;48.20;;
11835;SDS011;5977;51.972;7.640;2023-04-15T13:09:10;148.10;;;48.00;;
11835;SDS011;5977;51.972;7.640;2023-04-15T13:11:38;146.90;;;47.80;;
11835;SDS011;5977;51.972;7.640;2023-04-15T13:14:08;146.03;;;47.07;;
11835;SDS011;5977;51.972;7.640;2023-04-15T13:16:36;145.67;;;47.03;;
11835;SDS011;5977;51.972;7.640;2023-04-15T13:19:04;145.70;;;47.17;;
11835;SDS011;5977;51.972;7.640;2023-04-15T13:21:33;145.83;;;47.20;;
11835;SDS011;5977;51.972;7.640;2023-04-15T13:24:01;145.17;;;46.90;;
11835;SDS011;5977;51.972;7.640;2023-04-15T13:26:32;145.43;;;47.00;;
11835;SDS011;5977;51.972;7.640;2023-04-15T13:29:00;144.63;;;46.83;;
11835;SDS011;5977;51.972;7.640;2023-04-15T13:31:29;144.90;;;46.87;;
11835;SDS011;5977;51.972;7.640;2023-04-15T13:33:57;144.93;;;46.87;;
11835;SDS011;5977;51.972;7.640;2023-04-15T13:36:25;144.27;;;46.60;;
11835;SDS011;5977;51.972;7.640;2023-04-15T13:38:53;144.57;;;46.93;;
11835;SDS011;5977;51.972;7.640;2023-04-15T13:41:22;144.40;;;46.73;;
11835;SDS011;5977;51.972;7.640;2023-04-15T13:43:50;144.47;;;46.70;;
11835;SDS011;5977;51.972;7.640;2023-04-15T13:46:17;144.23;;;46.63;;
11835;SDS011;5977;51.972;7.640;2023-04-15T13:48:47;144.23;;;46.63;;
11835;SDS011;5977;51.972;7.640;2023-04-15T13:51:14;143.53;;;46.53;;
11835;SDS011;5977;51.972;7.640;2023-04-15T13:53:42;143.70;;;46.47;;
11835;SDS011;5977;51.972;7.640;2023-04-15T13:56:11;143.77;;;46.50;;
11835;SDS011;5977;51.972;7.640;2023-04-15T13:58:39;143.90;;;46.70;;
11835;SDS011;5977;51.972;7.640;2023-04-15T14:01:07;143.90;;;46.60;;
11835;SDS011;5977;51.972;7.640;2023-04-15T14:03:35;144.37;;;46.80;;
11835;SDS011;5977;51.972;7.640;2023-04-15T14:06:05;143.70;;;46.50;;
11835;SDS011;5977;51.972;7.640;2023-04-15T14:08:33;143.40;;;46.37;;
11835;SDS011;5977;51.972;7.640;2023-04-15T14:11:01;143.83;;;46.73;;
11835;SDS011;5977;51.972;7.640;2023-04-15T14:13:29;143.20;;;46.47;;
11835;SDS011;5977;51.972;7.640;2023-04-15T14:15:56;143.63;;;46.57;;
11835;SDS011;5977;51.972;7.640;2023-04-15T14:18:24;143.30;;;46.40;;
11835;SDS011;5977;51.972;7.640;2023-04-15T14:20:52;143.77;;;46.60;;
11835;SDS011;5977;51.972;7.640;2023-04-15T14:23:22;143.67;;;46.70;;
11835;SDS011;5977;51.972;7.640;2023-04-15T14:25:50;143.17;;;46.40;;
11835;SDS011;5977;51.972;7.640;2023-04-15T14:28:17;143.20;;;46.50;;
11835;SDS011;5977;51.972;7.640;2023-04-15T14:30:45;143.07;;;46.43;;
11835;SDS011;5977;51.972;7.640;2023-04-15T14:33:13;143.30;;;46.63;;
11835;SDS011;5977;51.972;7.640;2023-04-15T14:35:41;143.00;;;46.40;;
11835;SDS011;5977;51.972;7.640;2023-04-15T14:38:09;143.03;;;46.40;;
11835;SDS011;5977;51.972;7.640;2023-04-15T14:40:39;142.30;;;46.13;;
11835;SDS011;5977;51.972;7.640;2023-04-15T14:43:07;142.67;;;46.27;;